createdAt,value
2023-01-02T00:00:30.488Z,83.75
2023-01-02T00:05:33.372Z,83.19
2023-01-02T00:10:36.150Z,82.51
2023-01-02T00:15:40.317Z,81.70
2023-01-02T00:20:43.146Z,82.40
2023-01-02T00:25:45.943Z,83.01
2023-01-02T00:30:50.716Z,83.11
2023-01-02T00:35:53.559Z,81.27
2023-01-02T00:40:56.518Z,80.33
2023-01-02T00:46:04.835Z,78.94
2023-01-02T00:51:10.536Z,79.76
2023-01-02T00:56:13.811Z,77.66
2023-01-02T01:01:18.144Z,77.15
2023-01-02T01:06:21.431Z,74.90
2023-01-02T01:11:24.212Z,74.91
2023-01-02T01:16:28.441Z,73.84
2023-01-02T01:21:31.353Z,73.48
2023-01-02T01:26:34.693Z,73.51
2023-01-02T01:31:38.882Z,75.38
2023-01-02T01:36:41.728Z,75.30
2023-01-02T01:41:44.543Z,73.83
2023-01-02T01:46:48.915Z,73.41
2023-01-02T01:51:53.833Z,72.98
2023-01-02T01:57:00.773Z,71.77
2023-01-02T02:02:05.100Z,71.89
2023-01-02T02:07:08.471Z,71.31
2023-01-02T02:12:12.920Z,72.34
2023-01-02T02:17:24.450Z,71.44
2023-01-02T02:22:50.560Z,71.37
2023-01-02T02:28:25.625Z,71.38
2023-01-02T02:33:41.586Z,79.52
2023-01-02T02:38:58.497Z,77.54
2023-01-02T02:44:15.887Z,75.21
2023-01-02T02:49:33.607Z,74.90
2023-01-02T02:54:41.139Z,76.42
2023-01-02T02:59:44.454Z,75.85
2023-01-02T03:04:52.108Z,76.04
2023-01-02T03:10:07.706Z,76.78
2023-01-02T03:15:17.697Z,77.40
2023-01-02T03:20:26.061Z,79.03
2023-01-02T03:25:29.855Z,79.58
2023-01-02T03:30:38.251Z,78.53
2023-01-02T03:35:46.534Z,77.89
2023-01-02T03:40:53.847Z,77.04
2023-01-02T03:46:05.578Z,76.01
2023-01-02T03:51:10.395Z,75.46
2023-01-02T03:56:21.722Z,75.50
2023-01-02T04:01:35.656Z,74.99
2023-01-02T04:06:44.785Z,80.98
2023-01-02T04:11:53.435Z,76.17
2023-01-02T04:16:59.351Z,76.00
2023-01-02T04:22:08.384Z,75.65
2023-01-02T04:27:16.101Z,74.69
2023-01-02T04:32:23.734Z,74.50
2023-01-02T04:37:30.403Z,75.25
2023-01-02T04:42:33.199Z,75.45
2023-01-02T04:47:36.011Z,78.02
2023-01-02T04:52:40.156Z,80.75
2023-01-02T04:57:42.984Z,83.10
2023-01-02T05:02:45.861Z,84.43
2023-01-02T05:07:50.191Z,84.57
2023-01-02T05:12:52.982Z,86.18
2023-01-02T05:17:58.037Z,86.55
2023-01-02T05:23:19.578Z,86.73
2023-01-02T05:28:22.392Z,86.76
2023-01-02T05:33:25.246Z,86.78
2023-01-02T05:38:31.823Z,86.06
2023-01-02T05:43:36.341Z,84.71
2023-01-02T05:48:39.639Z,83.96
2023-01-02T05:53:44.007Z,81.92
2023-01-02T05:58:48.819Z,79.99
2023-01-02T06:03:53.472Z,78.42
2023-01-02T06:08:58.810Z,76.49
2023-01-02T06:14:01.941Z,74.73
2023-01-02T06:19:05.212Z,73.41
2023-01-02T06:24:09.567Z,72.19
2023-01-02T06:29:12.962Z,71.32
2023-01-02T06:34:17.834Z,71.20
2023-01-02T06:39:22.181Z,71.19
2023-01-02T06:44:24.955Z,70.86
2023-01-02T06:49:27.686Z,70.61
2023-01-02T06:54:31.597Z,71.26
2023-01-02T06:59:34.335Z,70.51
2023-01-02T07:04:37.086Z,70.58
2023-01-02T07:09:41.232Z,69.21
2023-01-02T07:14:44.399Z,69.84
2023-01-02T07:19:53.248Z,69.33
2023-01-02T07:24:58.621Z,70.25
2023-01-02T07:30:01.484Z,69.78
2023-01-02T07:35:04.406Z,69.77
2023-01-02T07:40:10.034Z,69.59
2023-01-02T07:45:12.766Z,69.39
2023-01-02T07:50:15.422Z,69.19
2023-01-02T07:55:19.608Z,68.37
2023-01-02T08:00:22.533Z,68.79
2023-01-02T08:05:25.269Z,68.32
2023-01-02T08:10:29.827Z,68.68
2023-01-02T08:15:32.981Z,67.91
2023-01-02T08:20:35.869Z,70.16
2023-01-02T08:25:39.961Z,70.62
2023-01-02T08:30:42.784Z,71.87
2023-01-02T08:35:45.500Z,72.59
2023-01-02T08:40:49.447Z,72.42
2023-01-02T08:45:52.275Z,72.11
2023-01-02T08:50:55.138Z,71.34
2023-01-02T08:56:21.170Z,70.31
2023-01-02T09:01:25.465Z,70.25
2023-01-02T09:06:31.439Z,70.81
2023-01-02T09:11:40.075Z,75.48
2023-01-02T09:16:42.862Z,78.48
2023-01-02T09:21:45.755Z,79.37
2023-01-02T09:26:49.997Z,77.78
2023-01-02T09:31:52.928Z,79.33
2023-01-02T09:36:55.734Z,80.27
2023-01-02T09:42:04.420Z,80.46
2023-01-02T09:47:13.305Z,78.39
2023-01-02T09:52:21.601Z,77.94
2023-01-02T09:57:37.053Z,76.93
2023-01-02T10:03:08.247Z,77.19
2023-01-02T10:08:31.498Z,77.93
2023-01-02T10:14:17.421Z,78.68
2023-01-02T10:19:10.858Z,81.06
2023-01-02T10:24:18.362Z,84.84
2023-01-02T10:29:30.203Z,87.16
2023-01-02T10:34:40.581Z,86.83
2023-01-02T10:39:44.784Z,84.53
2023-01-02T10:44:49.120Z,83.50
2023-01-02T10:49:53.959Z,84.14
2023-01-02T10:55:00.321Z,86.85
2023-01-02T11:00:08.308Z,85.69
2023-01-02T11:05:20.563Z,84.75
2023-01-02T11:10:26.383Z,82.65
2023-01-02T11:15:34.506Z,81.74
2023-01-02T11:20:38.915Z,80.92
2023-01-02T11:25:43.690Z,82.17
2023-01-02T11:30:50.250Z,79.59
2023-01-02T11:35:55.637Z,77.67
2023-01-02T11:41:01.236Z,77.47
2023-01-02T11:46:10.176Z,75.24
2023-01-02T11:51:17.908Z,75.58
2023-01-02T11:56:25.828Z,75.17
2023-01-02T12:01:38.102Z,77.51
2023-01-02T12:06:55.277Z,76.46
2023-01-02T12:12:16.482Z,76.90
2023-01-02T12:17:25.892Z,76.44
2023-01-02T12:22:48.951Z,77.76
2023-01-02T12:27:59.046Z,78.85
2023-01-02T12:33:32.159Z,78.01
2023-01-02T12:38:57.885Z,77.20
2023-01-02T12:44:14.156Z,77.93
2023-01-02T12:49:36.332Z,79.23
2023-01-02T12:54:56.857Z,79.38
2023-01-02T13:00:22.722Z,78.97
2023-01-02T13:05:31.000Z,78.97
2023-01-02T13:10:34.743Z,78.52
2023-01-02T13:15:41.504Z,77.52
2023-01-02T13:20:54.257Z,77.44
2023-01-02T13:25:59.254Z,77.78
2023-01-02T13:31:35.818Z,76.40
2023-01-02T13:36:39.351Z,77.69
2023-01-02T13:42:08.958Z,77.00
2023-01-02T13:47:25.553Z,76.72
2023-01-02T13:52:31.664Z,76.20
2023-01-02T13:57:34.611Z,75.48
2023-01-02T14:02:37.524Z,74.62
2023-01-02T14:07:49.267Z,73.99
2023-01-02T14:12:55.971Z,73.68
2023-01-02T14:18:04.963Z,74.05
2023-01-02T14:23:11.402Z,73.88
2023-01-02T14:28:22.620Z,74.37
2023-01-02T14:33:32.273Z,74.23
2023-01-02T14:38:41.359Z,73.54
2023-01-02T14:43:45.836Z,74.16
2023-01-02T14:48:55.947Z,73.18
2023-01-02T14:54:03.003Z,73.05
2023-01-02T14:59:08.258Z,73.40
2023-01-02T15:04:20.301Z,73.50
2023-01-02T15:09:30.659Z,73.49
2023-01-02T15:14:33.442Z,73.87
2023-01-02T15:19:42.224Z,74.10
2023-01-02T15:24:51.189Z,74.86
2023-01-02T15:29:56.935Z,74.36
2023-01-02T15:35:13.752Z,74.68
2023-01-02T15:40:21.330Z,74.26
2023-01-02T15:45:24.257Z,74.63
2023-01-02T15:50:29.305Z,74.70
2023-01-02T15:55:37.374Z,74.69
2023-01-02T16:00:40.634Z,73.65
2023-01-02T16:05:49.803Z,73.50
2023-01-02T16:11:01.334Z,73.36
2023-01-02T16:16:15.808Z,72.46
2023-01-02T16:21:19.986Z,73.14
2023-01-02T16:26:32.923Z,74.22
2023-01-02T16:31:52.361Z,74.85
2023-01-02T16:37:29.731Z,75.69
2023-01-02T16:42:37.627Z,76.72
2023-01-02T16:47:43.986Z,76.72
2023-01-02T16:52:47.421Z,76.36
2023-01-02T16:57:52.465Z,76.65
2023-01-02T17:02:55.365Z,77.45
2023-01-02T17:07:58.231Z,78.65
2023-01-02T17:13:02.521Z,80.07
2023-01-02T17:18:05.547Z,78.68
2023-01-02T17:23:09.049Z,79.37
2023-01-02T17:28:13.550Z,79.42
2023-01-02T17:33:16.834Z,78.02
2023-01-02T17:38:19.671Z,78.15
2023-01-02T17:43:24.111Z,77.46
2023-01-02T17:48:26.943Z,77.97
2023-01-02T17:53:29.777Z,76.88
2023-01-02T17:58:33.927Z,77.30
2023-01-02T18:03:38.082Z,78.47
2023-01-02T18:08:40.878Z,78.31
2023-01-02T18:13:47.810Z,77.78
2023-01-02T18:18:53.204Z,78.86
2023-01-02T18:23:59.529Z,78.00
2023-01-02T18:29:09.792Z,79.20
2023-01-02T18:34:46.343Z,79.51
2023-01-02T18:39:43.720Z,80.70
2023-01-02T18:44:48.355Z,82.80
2023-01-02T18:49:51.239Z,89.88
2023-01-02T18:54:59.804Z,91.51
2023-01-02T19:00:20.630Z,91.31
2023-01-02T19:05:27.067Z,92.87
2023-01-02T19:10:37.016Z,92.92
2023-01-02T19:15:44.235Z,91.28
2023-01-02T19:20:50.247Z,92.61
2023-01-02T19:25:53.827Z,93.21
2023-01-02T19:30:58.392Z,91.93
2023-01-02T19:36:03.636Z,92.60
2023-01-02T19:41:06.561Z,92.39
2023-01-02T19:46:10.739Z,91.69
2023-01-02T19:51:13.628Z,90.14
2023-01-02T19:56:16.484Z,91.27
2023-01-02T20:01:22.237Z,90.55
2023-01-02T20:06:25.494Z,91.54
2023-01-02T20:11:46.112Z,89.76
2023-01-02T20:16:50.333Z,88.23
2023-01-02T20:21:54.192Z,88.63
2023-01-02T20:26:58.298Z,88.71
2023-01-02T20:32:02.624Z,87.82
2023-01-02T20:37:05.783Z,88.25
2023-01-02T20:42:13.439Z,88.43
2023-01-02T20:47:18.718Z,88.56
2023-01-02T20:52:21.906Z,87.28
2023-01-02T20:57:24.731Z,87.71
2023-01-02T21:02:29.002Z,87.04
2023-01-02T21:07:31.909Z,88.72
2023-01-02T21:12:52.087Z,88.65
2023-01-02T21:17:56.502Z,88.13
2023-01-02T21:22:59.322Z,88.41
2023-01-02T21:28:02.472Z,88.58
2023-01-02T21:33:06.800Z,89.50
2023-01-02T21:38:10.713Z,87.21
2023-01-02T21:43:13.986Z,86.22
2023-01-02T21:48:18.105Z,86.45
2023-01-02T21:53:20.914Z,86.67
2023-01-02T21:58:23.719Z,87.41
2023-01-02T22:03:27.941Z,87.17
2023-01-02T22:08:30.976Z,87.19
2023-01-02T22:13:33.783Z,87.11
2023-01-02T22:18:38.400Z,87.18
2023-01-02T22:23:41.443Z,87.23
2023-01-02T22:28:44.643Z,86.68
2023-01-02T22:33:48.782Z,86.97
2023-01-02T22:39:25.849Z,85.49
2023-01-02T22:44:17.281Z,84.59
2023-01-02T22:49:25.393Z,84.59
2023-01-02T22:54:28.239Z,84.30
2023-01-02T22:59:31.021Z,83.41
2023-01-02T23:04:35.173Z,83.49
2023-01-02T23:09:37.908Z,83.74
2023-01-02T23:14:40.713Z,83.54
2023-01-02T23:19:44.878Z,83.71
2023-01-02T23:24:47.736Z,82.85
2023-01-02T23:29:50.546Z,83.19
2023-01-02T23:34:55.769Z,83.92
2023-01-02T23:39:58.621Z,83.72
2023-01-02T23:45:01.502Z,83.38
2023-01-02T23:50:06.606Z,83.98
2023-01-02T23:55:10.292Z,83.45
